Terminal Aerodrome Forecast
Issued by NWS

Home | Current Version | Previous Version | Text Only | Print | Product List | Glossary On
Versions: 1 2 3 4 5 6 7 8 9 10 11 12 13 14 15 16
000
FTUS41 KCAR 182300
TAFFVE
TAF
KFVE 182321Z 1900/1924 13007KT P6SM BKN100 OVC200
     FM190700 18005KT P6SM -SHSN SCT025 OVC050
     FM190900 19004KT 2SM -SHSN OVC020
     FM191500 32010G18KT 5SM -SHSN OVC025
     FM191800 32017G27KT P6SM VCSH BKN025 OVC040=

USA.gov is the U.S. government's official web portal to all federal, state and local government web resources and services.